Terminal Aerodrome Forecast
Issued by NWS Bismarck, ND

Home | Current Version | Previous Version | Graphics & Text | Print | Product List | Glossary On
Versions: 1 2 3 4 5 6 7 8 9 10 11 12 13 14 15 16 17 18 19 20 21 22
000
FTUS43 KBIS 020834 AAC
TAFBIS
TAF AMD
KBIS 020834Z 0209/0306 17008KT 4SM -TSRA BR BKN040CB
     FM021000 VRB03KT 5SM BR BKN080
     FM021500 30005KT P6SM SCT080
     FM022100 32007KT P6SM SCT050
     FM030000 35006KT P6SM VCSH SCT050=

USA.gov is the U.S. government's official web portal to all federal, state and local government web resources and services.